Terminal Aerodrome Forecast
Issued by NWS

Home | Current Version | Previous Version | Text Only | Print | Product List | Glossary On
Versions: 1 2 3 4 5 6 7 8 9 10 11 12
133
FTUS45 KTFX 301120
TAFHLN
TAF
KHLN 301120Z 3012/3112 VRB06KT P6SM SCT090
     FM302000 27011G18KT P6SM SCT200
     FM310200 28012KT P6SM SKC=

USA.gov is the U.S. government's official web portal to all federal, state and local government web resources and services.